createdAt,value
2018-05-26T00:01:28.017Z,6.17
2018-05-26T00:03:55.146Z,6.10
2018-05-26T00:06:22.148Z,4.87
2018-05-26T00:08:49.201Z,5.03
2018-05-26T00:11:16.213Z,5.57
2018-05-26T00:13:43.316Z,5.47
2018-05-26T00:16:10.355Z,6.07
2018-05-26T00:18:37.391Z,5.60
2018-05-26T00:21:04.427Z,5.80
2018-05-26T00:23:32.220Z,5.27
2018-05-26T00:25:59.231Z,5.20
2018-05-26T00:28:26.996Z,5.53
2018-05-26T00:30:54.735Z,6.03
2018-05-26T00:33:21.747Z,5.20
2018-05-26T00:35:48.789Z,5.23
2018-05-26T00:38:15.809Z,5.30
2018-05-26T00:40:43.567Z,5.10
2018-05-26T00:43:11.312Z,5.43
2018-05-26T00:45:39.140Z,5.27
2018-05-26T00:48:06.625Z,6.30
2018-05-26T00:50:33.728Z,5.60
2018-05-26T00:53:00.726Z,5.03
2018-05-26T00:55:27.836Z,5.70
2018-05-26T00:57:54.872Z,5.47
2018-05-26T01:00:21.896Z,5.50
2018-05-26T01:02:49.668Z,4.93
2018-05-26T01:05:16.824Z,4.43
2018-05-26T01:07:43.889Z,5.30
2018-05-26T01:10:10.924Z,6.03
2018-05-26T01:12:37.933Z,4.80
2018-05-26T01:15:05.780Z,5.30
2018-05-26T01:17:32.796Z,5.50
2018-05-26T01:19:59.823Z,5.40
2018-05-26T01:22:26.844Z,5.17
2018-05-26T01:24:53.909Z,5.40
2018-05-26T01:27:21.653Z,5.37
2018-05-26T01:29:49.466Z,5.97
2018-05-26T01:32:16.477Z,5.53
2018-05-26T01:34:44.299Z,6.07
2018-05-26T01:37:11.321Z,5.93
2018-05-26T01:39:38.366Z,5.63
2018-05-26T01:42:05.373Z,5.57
2018-05-26T01:44:32.495Z,5.37
2018-05-26T01:46:59.501Z,4.77
2018-05-26T01:49:26.565Z,4.97
2018-05-26T01:51:53.597Z,5.70
2018-05-26T01:54:20.679Z,6.30
2018-05-26T01:56:47.700Z,5.40
2018-05-26T01:59:14.771Z,6.40
2018-05-26T02:01:41.924Z,5.40
2018-05-26T02:04:09.891Z,5.53
2018-05-26T02:06:36.875Z,7.43
2018-05-26T02:09:04.676Z,6.30
2018-05-26T02:11:31.686Z,8.00
2018-05-26T02:13:58.787Z,7.00
2018-05-26T02:16:25.816Z,7.63
2018-05-26T02:18:52.900Z,8.30
2018-05-26T02:21:20.656Z,7.33
2018-05-26T02:23:47.707Z,7.30
2018-05-26T02:26:15.505Z,8.07
2018-05-26T02:28:42.540Z,7.80
2018-05-26T02:31:10.314Z,8.37
2018-05-26T02:33:38.175Z,8.50
2018-05-26T02:36:05.940Z,7.97
2018-05-26T02:38:33.717Z,9.93
2018-05-26T02:41:01.464Z,8.23
2018-05-26T02:43:28.563Z,9.07
2018-05-26T02:45:55.596Z,7.93
2018-05-26T02:48:22.596Z,8.17
2018-05-26T02:50:49.627Z,7.63
2018-05-26T02:53:16.673Z,7.43
2018-05-26T02:55:43.741Z,7.40
2018-05-26T02:58:11.508Z,6.67
2018-05-26T03:00:38.532Z,7.00
2018-05-26T03:03:05.566Z,7.30
2018-05-26T03:05:38.853Z,7.70
2018-05-26T03:08:11.978Z,8.67
2018-05-26T03:10:45.004Z,9.83
2018-05-26T03:13:18.013Z,11.80
2018-05-26T03:15:45.090Z,10.23
2018-05-26T03:18:12.137Z,10.03
2018-05-26T03:20:39.181Z,9.37
2018-05-26T03:23:06.192Z,8.97
2018-05-26T03:25:34.318Z,9.70
2018-05-26T03:28:01.334Z,8.27
2018-05-26T03:30:28.384Z,9.17
2018-05-26T03:32:55.424Z,8.70
2018-05-26T03:35:22.507Z,8.20
2018-05-26T03:37:49.513Z,6.80
2018-05-26T03:40:16.574Z,8.00
2018-05-26T03:42:43.599Z,7.23
2018-05-26T03:45:10.689Z,7.10
2018-05-26T03:47:37.719Z,6.97
2018-05-26T03:50:04.756Z,6.60
2018-05-26T03:52:31.752Z,7.60
2018-05-26T03:55:36.799Z,7.00
2018-05-26T03:58:22.991Z,7.00
2018-05-26T04:00:50.264Z,6.40
2018-05-26T04:03:17.287Z,6.60
2018-05-26T04:05:45.929Z,6.47
2018-05-26T04:08:12.912Z,6.70
2018-05-26T04:10:39.917Z,6.50
2018-05-26T04:13:06.957Z,7.30
2018-05-26T04:15:34.029Z,7.03
2018-05-26T04:18:01.083Z,7.17
2018-05-26T04:20:28.089Z,6.50
2018-05-26T04:22:55.134Z,8.20
2018-05-26T04:25:22.360Z,8.23
2018-05-26T04:27:49.413Z,7.27
2018-05-26T04:30:16.453Z,7.70
2018-05-26T04:32:43.456Z,7.57
2018-05-26T04:35:11.661Z,7.00
2018-05-26T04:37:38.705Z,6.60
2018-05-26T04:40:05.737Z,6.17
2018-05-26T04:42:32.779Z,6.97
2018-05-26T04:44:59.805Z,7.10
2018-05-26T04:47:26.836Z,7.20
2018-05-26T04:49:54.590Z,7.97
2018-05-26T04:52:21.644Z,8.13
2018-05-26T04:54:48.725Z,8.03
2018-05-26T04:57:15.760Z,7.20
2018-05-26T04:59:42.783Z,7.77
2018-05-26T05:02:09.797Z,7.97
2018-05-26T05:04:37.640Z,8.40
2018-05-26T05:07:04.668Z,7.77
2018-05-26T05:09:31.673Z,9.97
2018-05-26T05:11:59.443Z,11.17
2018-05-26T05:14:26.544Z,10.30
2018-05-26T05:16:53.529Z,10.10
2018-05-26T05:19:20.528Z,8.13
2018-05-26T05:21:48.291Z,8.90
2018-05-26T05:24:15.717Z,10.27
2018-05-26T05:26:42.864Z,10.07
2018-05-26T05:29:10.140Z,9.23
2018-05-26T05:31:37.196Z,10.70
2018-05-26T05:34:04.241Z,9.53
2018-05-26T05:36:31.251Z,9.30
2018-05-26T05:38:58.353Z,10.33
2018-05-26T05:41:25.388Z,11.10
2018-05-26T05:43:52.445Z,10.70
2018-05-26T05:46:19.604Z,10.50
2018-05-26T05:48:46.663Z,10.67
2018-05-26T05:51:13.668Z,10.70
2018-05-26T05:53:40.765Z,12.03
2018-05-26T05:56:07.788Z,10.50
2018-05-26T05:58:35.176Z,10.77
2018-05-26T06:01:02.329Z,10.60
2018-05-26T06:03:30.079Z,9.63
2018-05-26T06:05:57.120Z,9.40
2018-05-26T06:08:24.244Z,10.53
2018-05-26T06:10:51.237Z,9.30
2018-05-26T06:13:18.255Z,9.90
2018-05-26T06:15:45.275Z,10.93
2018-05-26T06:18:12.309Z,9.70
2018-05-26T06:20:39.315Z,10.27
2018-05-26T06:23:07.676Z,9.63
2018-05-26T06:25:35.869Z,9.17
2018-05-26T06:28:02.937Z,9.33
2018-05-26T06:30:30.715Z,10.20
2018-05-26T06:32:57.725Z,9.20
2018-05-26T06:35:24.821Z,8.53
2018-05-26T06:37:51.833Z,8.40
2018-05-26T06:40:19.330Z,8.37
2018-05-26T06:42:46.417Z,8.00
2018-05-26T06:45:14.701Z,7.87
2018-05-26T06:47:41.831Z,8.97
2018-05-26T06:50:08.895Z,9.23
2018-05-26T06:52:36.719Z,8.07
2018-05-26T06:55:05.556Z,9.33
2018-05-26T06:57:33.348Z,9.10
2018-05-26T07:00:01.107Z,9.47
2018-05-26T07:02:28.664Z,10.77
2018-05-26T07:04:56.900Z,9.77
2018-05-26T07:07:23.963Z,8.90
2018-05-26T07:09:50.977Z,9.53
2018-05-26T07:12:18.008Z,8.50
2018-05-26T07:14:46.121Z,9.67
2018-05-26T07:17:13.149Z,11.90
2018-05-26T07:19:40.195Z,11.17
2018-05-26T07:22:07.758Z,10.53
2018-05-26T07:24:35.264Z,9.17
2018-05-26T07:27:02.316Z,10.07
2018-05-26T07:29:29.646Z,9.90
2018-05-26T07:31:57.693Z,10.07
2018-05-26T07:34:26.563Z,9.33
2018-05-26T07:36:53.617Z,8.53
2018-05-26T07:39:21.732Z,8.70
2018-05-26T07:41:49.194Z,9.20
2018-05-26T07:44:18.508Z,7.20
2018-05-26T07:46:45.656Z,7.13
2018-05-26T07:49:13.455Z,6.27
2018-05-26T07:51:40.509Z,9.40
2018-05-26T07:54:08.041Z,9.50
2018-05-26T07:56:35.113Z,7.83
2018-05-26T07:59:02.132Z,7.30
2018-05-26T08:01:29.228Z,7.90
2018-05-26T08:04:02.200Z,7.50
2018-05-26T08:06:29.265Z,6.97
2018-05-26T08:08:56.316Z,8.90
2018-05-26T08:11:23.564Z,8.53
2018-05-26T08:13:52.444Z,6.90
2018-05-26T08:16:19.506Z,8.17
2018-05-26T08:18:47.145Z,5.90
2018-05-26T08:21:14.370Z,7.00
2018-05-26T08:23:41.570Z,5.10
2018-05-26T08:26:08.733Z,6.03
2018-05-26T08:28:35.765Z,6.20
2018-05-26T08:31:02.814Z,6.60
2018-05-26T08:33:30.612Z,6.90
2018-05-26T08:35:58.137Z,5.30
2018-05-26T08:38:25.284Z,5.93
2018-05-26T08:40:52.325Z,5.67
2018-05-26T08:43:19.356Z,6.00
2018-05-26T08:45:48.005Z,6.83
2018-05-26T08:48:15.266Z,17.43
2018-05-26T08:50:42.312Z,6.53
2018-05-26T08:53:09.300Z,11.30
2018-05-26T08:55:37.861Z,6.30
2018-05-26T08:58:05.853Z,6.60
2018-05-26T09:00:32.906Z,6.87
2018-05-26T09:03:00.708Z,6.33
2018-05-26T09:05:28.773Z,6.37
2018-05-26T09:07:56.265Z,6.10
2018-05-26T09:10:24.628Z,7.80
2018-05-26T09:12:51.961Z,7.27
2018-05-26T09:15:24.804Z,6.43
2018-05-26T09:17:52.304Z,6.13
2018-05-26T09:20:19.501Z,5.70
2018-05-26T09:22:47.342Z,4.93
2018-05-26T09:25:15.000Z,5.63
2018-05-26T09:27:42.103Z,5.60
2018-05-26T09:30:09.179Z,5.30
2018-05-26T09:32:36.960Z,5.20
2018-05-26T09:35:06.044Z,5.70
2018-05-26T09:37:33.298Z,5.63
2018-05-26T09:40:01.101Z,5.87
2018-05-26T09:42:28.148Z,4.00
2018-05-26T09:44:55.225Z,4.77
2018-05-26T09:47:22.325Z,5.33
2018-05-26T09:49:49.541Z,5.10
2018-05-26T09:52:16.708Z,5.50
2018-05-26T09:54:44.044Z,4.80
2018-05-26T09:57:12.260Z,5.97
2018-05-26T09:59:39.309Z,6.30
2018-05-26T10:02:06.345Z,6.67
2018-05-26T10:04:35.174Z,6.17
2018-05-26T10:07:02.262Z,6.03
2018-05-26T10:09:30.044Z,6.00
2018-05-26T10:11:57.059Z,5.87
2018-05-26T10:14:24.225Z,6.03
2018-05-26T10:16:52.023Z,5.70
2018-05-26T10:19:19.229Z,4.50
2018-05-26T10:21:47.000Z,5.83
2018-05-26T10:24:16.157Z,5.47
2018-05-26T10:26:43.169Z,5.47
2018-05-26T10:29:10.176Z,5.73
2018-05-26T10:31:37.208Z,5.50
2018-05-26T10:34:04.586Z,5.50
2018-05-26T10:36:31.854Z,6.60
2018-05-26T10:38:59.642Z,5.30
2018-05-26T10:41:27.368Z,5.63
2018-05-26T10:43:54.507Z,5.03
2018-05-26T10:46:28.233Z,5.40
2018-05-26T10:48:55.255Z,5.57
2018-05-26T10:51:22.969Z,7.77
2018-05-26T10:53:50.053Z,8.37
2018-05-26T10:56:17.045Z,5.40
2018-05-26T10:58:44.800Z,5.30
2018-05-26T11:01:11.804Z,5.97
2018-05-26T11:03:38.844Z,4.57
2018-05-26T11:06:05.885Z,7.03
2018-05-26T11:08:32.890Z,6.00
2018-05-26T11:11:00.647Z,4.57
2018-05-26T11:13:28.457Z,5.03
2018-05-26T11:15:55.501Z,5.27
2018-05-26T11:18:23.199Z,5.13
2018-05-26T11:20:50.528Z,5.07
2018-05-26T11:23:17.548Z,4.80
2018-05-26T11:25:44.673Z,4.63
2018-05-26T11:28:12.472Z,5.40
2018-05-26T11:30:39.657Z,5.03
2018-05-26T11:33:06.640Z,5.80
2018-05-26T11:35:35.486Z,6.00
2018-05-26T11:38:02.488Z,4.43
2018-05-26T11:40:30.251Z,4.73
2018-05-26T11:42:58.003Z,5.23
2018-05-26T11:45:25.824Z,12.60
2018-05-26T11:47:52.861Z,22.40
2018-05-26T11:50:19.905Z,4.97
2018-05-26T11:52:46.909Z,4.60
2018-05-26T11:55:14.771Z,5.23
2018-05-26T11:57:41.788Z,5.53
2018-05-26T12:00:08.848Z,6.07
2018-05-26T12:02:35.904Z,5.10
2018-05-26T12:05:02.924Z,6.07
2018-05-26T12:07:29.972Z,5.07
2018-05-26T12:09:56.961Z,5.80
2018-05-26T12:12:24.017Z,4.90
2018-05-26T12:14:51.827Z,5.10
2018-05-26T12:17:18.833Z,6.03
2018-05-26T12:19:45.864Z,12.33
2018-05-26T12:22:12.880Z,4.80
2018-05-26T12:24:39.924Z,5.97
2018-05-26T12:27:06.944Z,5.30
2018-05-26T12:29:34.712Z,6.10
2018-05-26T12:32:01.748Z,5.00
2018-05-26T12:34:28.828Z,4.70
2018-05-26T12:36:56.032Z,4.87
2018-05-26T12:39:23.120Z,4.80
2018-05-26T12:41:50.185Z,5.60
2018-05-26T12:44:17.234Z,4.20
2018-05-26T12:46:44.268Z,5.17
2018-05-26T12:49:11.653Z,4.17
2018-05-26T12:51:38.657Z,5.17
2018-05-26T12:54:05.719Z,4.10
2018-05-26T12:56:32.772Z,4.07
2018-05-26T12:58:59.773Z,4.40
2018-05-26T13:01:26.816Z,5.33
2018-05-26T13:03:54.944Z,4.33
2018-05-26T13:06:22.155Z,4.23
2018-05-26T13:08:49.920Z,4.00
2018-05-26T13:11:16.943Z,4.07
2018-05-26T13:13:46.819Z,4.17
2018-05-26T13:16:13.876Z,4.70
2018-05-26T13:18:40.917Z,4.80
2018-05-26T13:21:07.904Z,4.20
2018-05-26T13:23:35.042Z,3.90
2018-05-26T13:26:02.872Z,4.37
2018-05-26T13:28:29.866Z,3.30
2018-05-26T13:30:57.623Z,3.93
2018-05-26T13:33:24.634Z,4.70
2018-05-26T13:35:51.631Z,4.00
2018-05-26T13:38:18.684Z,4.57
2018-05-26T13:40:45.719Z,4.27
2018-05-26T13:43:12.761Z,4.80
2018-05-26T13:45:43.628Z,4.87
2018-05-26T13:48:10.713Z,4.60
2018-05-26T13:50:37.809Z,3.70
2018-05-26T13:53:04.907Z,4.30
2018-05-26T13:55:31.986Z,13.70
2018-05-26T13:57:58.997Z,4.90
2018-05-26T14:00:26.021Z,4.27
2018-05-26T14:02:53.020Z,5.43
2018-05-26T14:05:20.856Z,3.63
2018-05-26T14:07:47.888Z,4.47
2018-05-26T14:10:14.937Z,4.97
2018-05-26T14:12:41.977Z,4.90
2018-05-26T14:15:09.024Z,4.60
2018-05-26T14:17:36.032Z,4.90
2018-05-26T14:20:03.074Z,5.10
2018-05-26T14:22:30.848Z,4.50
2018-05-26T14:24:57.944Z,5.63
2018-05-26T14:27:24.956Z,5.47
2018-05-26T14:29:55.007Z,4.27
2018-05-26T14:32:24.201Z,4.47
2018-05-26T14:34:52.049Z,4.40
2018-05-26T14:37:19.078Z,4.57
2018-05-26T14:39:46.104Z,4.60
2018-05-26T14:42:13.145Z,4.70
2018-05-26T14:44:40.153Z,4.27
2018-05-26T14:47:07.185Z,4.23
2018-05-26T14:49:34.216Z,4.47
2018-05-26T14:52:01.968Z,4.77
2018-05-26T14:54:29.835Z,7.10
2018-05-26T14:56:57.579Z,5.20
2018-05-26T14:59:24.610Z,6.93
2018-05-26T15:01:51.635Z,4.30
2018-05-26T15:04:18.692Z,4.70
2018-05-26T15:06:45.756Z,4.27
2018-05-26T15:09:12.757Z,4.90
2018-05-26T15:11:40.491Z,5.40
2018-05-26T15:14:07.610Z,4.40
2018-05-26T15:16:34.615Z,4.53
2018-05-26T15:19:01.684Z,4.17
2018-05-26T15:21:29.180Z,6.53
2018-05-26T15:23:56.311Z,8.80
2018-05-26T15:26:23.350Z,4.40
2018-05-26T15:28:50.335Z,10.70
2018-05-26T15:31:17.949Z,6.07
2018-05-26T15:33:45.007Z,5.00
2018-05-26T15:36:12.777Z,4.50
2018-05-26T15:38:39.785Z,4.37
2018-05-26T15:41:06.803Z,4.00
2018-05-26T15:43:34.584Z,8.03
2018-05-26T15:46:02.331Z,4.80
2018-05-26T15:48:30.122Z,5.37
2018-05-26T15:50:57.164Z,7.07
2018-05-26T15:53:24.932Z,7.50
2018-05-26T15:55:51.959Z,4.40
2018-05-26T15:58:18.969Z,4.37
2018-05-26T16:00:46.009Z,3.83
2018-05-26T16:03:13.003Z,4.23
2018-05-26T16:05:40.139Z,4.17
2018-05-26T16:08:07.128Z,4.07
2018-05-26T16:10:34.532Z,4.13
2018-05-26T16:13:01.705Z,4.23
2018-05-26T16:15:28.786Z,3.60
2018-05-26T16:17:56.090Z,3.90
2018-05-26T16:20:23.099Z,4.20
2018-05-26T16:22:50.187Z,3.90
2018-05-26T16:25:17.310Z,4.60
2018-05-26T16:27:44.357Z,6.20
2018-05-26T16:30:11.630Z,4.10
2018-05-26T16:32:38.628Z,3.83
2018-05-26T16:35:05.688Z,3.57
2018-05-26T16:37:32.716Z,4.90
2018-05-26T16:39:59.724Z,3.57
2018-05-26T16:42:27.491Z,4.17
2018-05-26T16:44:54.588Z,4.40
2018-05-26T16:47:21.657Z,3.93
2018-05-26T16:49:48.780Z,5.03
2018-05-26T16:52:15.780Z,4.77
2018-05-26T16:54:42.778Z,4.00
2018-05-26T16:57:09.773Z,4.67
2018-05-26T16:59:37.554Z,4.77
2018-05-26T17:02:04.657Z,3.83
2018-05-26T17:04:32.714Z,3.73
2018-05-26T17:06:59.761Z,3.90
2018-05-26T17:09:26.860Z,4.40
2018-05-26T17:11:54.527Z,3.90
2018-05-26T17:14:22.326Z,4.23
2018-05-26T17:16:49.315Z,4.37
2018-05-26T17:19:16.339Z,4.20
2018-05-26T17:21:43.347Z,4.30
2018-05-26T17:24:11.144Z,4.30
2018-05-26T17:26:38.175Z,4.43
2018-05-26T17:29:05.952Z,4.47
2018-05-26T17:31:32.924Z,4.10
2018-05-26T17:33:59.952Z,4.80
2018-05-26T17:36:27.724Z,4.30
2018-05-26T17:38:54.765Z,5.20
2018-05-26T17:41:21.746Z,5.13
2018-05-26T17:43:48.860Z,6.60
2018-05-26T17:46:15.899Z,6.40
2018-05-26T17:48:42.897Z,6.90
2018-05-26T17:51:10.912Z,8.60
2018-05-26T17:53:38.468Z,6.60
2018-05-26T17:56:05.651Z,6.93
2018-05-26T17:58:32.687Z,5.50
2018-05-26T18:00:59.749Z,6.20
2018-05-26T18:03:26.764Z,6.40
2018-05-26T18:05:53.809Z,6.27
2018-05-26T18:08:20.833Z,6.40
2018-05-26T18:10:48.578Z,7.33
2018-05-26T18:13:16.368Z,8.67
2018-05-26T18:15:43.448Z,10.13
2018-05-26T18:18:10.452Z,8.27
2018-05-26T18:20:37.476Z,7.70
2018-05-26T18:23:05.244Z,7.67
2018-05-26T18:25:32.352Z,7.03
2018-05-26T18:27:59.395Z,6.53
2018-05-26T18:30:26.407Z,6.20
2018-05-26T18:32:53.458Z,5.80
2018-05-26T18:35:21.261Z,6.27
2018-05-26T18:37:48.281Z,6.27
2018-05-26T18:40:15.312Z,5.80
2018-05-26T18:42:42.328Z,6.50
2018-05-26T18:45:09.471Z,6.50
2018-05-26T18:47:36.472Z,6.57
2018-05-26T18:50:03.548Z,6.83
2018-05-26T18:52:30.606Z,6.53
2018-05-26T18:54:57.634Z,7.00
2018-05-26T18:57:24.691Z,7.33
2018-05-26T18:59:51.728Z,7.77
2018-05-26T19:02:18.751Z,8.23
2018-05-26T19:04:45.824Z,7.87
2018-05-26T19:07:12.845Z,12.03
2018-05-26T19:09:39.896Z,13.10
2018-05-26T19:12:06.929Z,11.73
2018-05-26T19:14:34.031Z,9.63
2018-05-26T19:17:01.048Z,9.60
2018-05-26T19:19:28.089Z,8.70
2018-05-26T19:21:55.119Z,9.90
2018-05-26T19:24:22.224Z,9.23
2018-05-26T19:26:49.992Z,9.23
2018-05-26T19:29:16.983Z,8.60
2018-05-26T19:31:44.052Z,9.63
2018-05-26T19:34:11.108Z,9.40
2018-05-26T19:36:38.557Z,9.50
2018-05-26T19:39:06.762Z,9.13
2018-05-26T19:41:34.725Z,9.03
2018-05-26T19:44:01.883Z,7.40
2018-05-26T19:46:28.926Z,8.13
2018-05-26T19:48:55.969Z,7.27
2018-05-26T19:51:23.308Z,9.30
2018-05-26T19:53:51.508Z,8.40
2018-05-26T19:56:19.323Z,8.87
2018-05-26T19:58:46.357Z,10.07
2018-05-26T20:01:13.410Z,10.93
2018-05-26T20:03:40.504Z,9.63
2018-05-26T20:06:08.008Z,10.13
2018-05-26T20:08:35.350Z,9.43
2018-05-26T20:11:03.120Z,9.40
2018-05-26T20:13:30.909Z,8.97
2018-05-26T20:15:57.983Z,8.50
2018-05-26T20:18:25.028Z,10.23
2018-05-26T20:20:52.054Z,11.30
2018-05-26T20:23:19.073Z,11.00
2018-05-26T20:25:47.088Z,9.80
2018-05-26T20:28:14.152Z,10.37
2018-05-26T20:30:41.169Z,9.40
2018-05-26T20:33:08.208Z,8.10
2018-05-26T20:35:35.990Z,8.97
2018-05-26T20:38:03.167Z,8.07
2018-05-26T20:40:30.202Z,8.67
2018-05-26T20:42:57.175Z,8.13
2018-05-26T20:45:24.291Z,7.17
2018-05-26T20:47:51.335Z,7.90
2018-05-26T20:50:18.633Z,8.63
2018-05-26T20:52:45.757Z,8.60
2018-05-26T20:55:12.827Z,9.70
2018-05-26T20:57:39.839Z,10.00
2018-05-26T21:00:07.004Z,10.27
2018-05-26T21:02:34.807Z,11.53
2018-05-26T21:05:01.906Z,13.20
2018-05-26T21:07:29.218Z,13.50
2018-05-26T21:09:56.270Z,11.33
2018-05-26T21:12:23.330Z,11.30
2018-05-26T21:14:50.664Z,10.10
2018-05-26T21:17:17.757Z,9.10
2018-05-26T21:19:45.180Z,8.80
2018-05-26T21:22:12.346Z,8.07
2018-05-26T21:24:39.425Z,9.37
2018-05-26T21:27:07.191Z,8.23
2018-05-26T21:29:34.945Z,9.17
2018-05-26T21:32:02.790Z,8.20
2018-05-26T21:34:29.916Z,8.80
2018-05-26T21:36:56.933Z,9.37
2018-05-26T21:39:23.956Z,8.83
2018-05-26T21:41:50.948Z,9.20
2018-05-26T21:44:18.004Z,8.40
2018-05-26T21:46:45.029Z,9.40
2018-05-26T21:49:12.764Z,8.70
2018-05-26T21:51:39.772Z,7.43
2018-05-26T21:54:06.909Z,7.63
2018-05-26T21:56:33.941Z,8.93
2018-05-26T21:59:00.960Z,8.20
2018-05-26T22:01:27.987Z,8.03
2018-05-26T22:03:55.106Z,7.23
2018-05-26T22:06:22.146Z,7.70
2018-05-26T22:08:49.155Z,8.63
2018-05-26T22:11:16.175Z,8.50
2018-05-26T22:13:43.184Z,8.97
2018-05-26T22:16:10.187Z,7.53
2018-05-26T22:18:37.212Z,7.30
2018-05-26T22:21:04.283Z,8.57
2018-05-26T22:23:31.368Z,8.00
2018-05-26T22:25:58.388Z,11.63
2018-05-26T22:28:26.141Z,9.10
2018-05-26T22:30:53.119Z,10.00
2018-05-26T22:33:20.134Z,8.40
2018-05-26T22:35:47.933Z,8.70
2018-05-26T22:38:14.973Z,8.47
2018-05-26T22:40:41.992Z,8.60
2018-05-26T22:43:09.017Z,8.17
2018-05-26T22:45:36.132Z,8.77
2018-05-26T22:48:03.162Z,9.37
2018-05-26T22:50:30.186Z,8.30
2018-05-26T22:52:57.920Z,8.30
2018-05-26T22:55:25.037Z,8.40
2018-05-26T22:57:52.040Z,8.00
2018-05-26T23:00:19.876Z,8.10
2018-05-26T23:02:46.912Z,7.33
2018-05-26T23:05:13.932Z,7.97
2018-05-26T23:07:40.941Z,7.77
2018-05-26T23:10:08.689Z,7.07
2018-05-26T23:12:35.696Z,8.10
2018-05-26T23:15:02.794Z,8.57
2018-05-26T23:17:30.555Z,7.50
2018-05-26T23:19:57.536Z,7.93
2018-05-26T23:22:24.543Z,8.20
2018-05-26T23:24:51.868Z,7.97
2018-05-26T23:27:18.872Z,7.60
2018-05-26T23:29:45.884Z,7.00
2018-05-26T23:32:12.880Z,8.93
2018-05-26T23:34:39.935Z,8.10
2018-05-26T23:37:07.663Z,7.40
2018-05-26T23:39:35.416Z,7.30
2018-05-26T23:42:02.445Z,7.70
2018-05-26T23:44:29.572Z,7.90
2018-05-26T23:46:56.573Z,7.43
2018-05-26T23:49:23.623Z,8.33
2018-05-26T23:51:51.369Z,7.60
2018-05-26T23:54:18.488Z,7.43
2018-05-26T23:56:45.526Z,7.87
2018-05-26T23:59:12.564Z,8.07
